GUCY/CKY METAR and TAF weather

Enter ICAO airport designator
Station Type Date Time Source
GUCY METAR 2019/02/20 06:00 UTC NOAA

GUCY 200600Z 00000KT 4000 BR FEW015 24/23 Q1010 NOSIG


Station Type Date Time Source
GUCY Decoded METAR 2019/02/20 06:00 UTC NOAA

Conakry / Gbessia, Guinea (GUCY) 09-34N 013-37W 26M
Feb 20, 2019 - 01:00 AM EST / 2019.02.20 0600 UTC
Wind: Calm:0
Visibility: 2 mile(s):0
Sky conditions: mostly clear
Weather: mist
Temperature: 75 F (24 C)
Dew Point: 73 F (23 C)
Relative Humidity: 94%
Pressure (altimeter): 29.83 in. Hg (1010 hPa)
ob: GUCY 200600Z 00000KT 4000 BR FEW015 24/23 Q1010 NOSIG
cycle: 6

Station Type Date Time Source
GUCY TAF 2019/02/20 06:58 UTC NOAA

TAF COR GUCY 200500Z 2006/2112 28006KT 5000 HZ SCT110
TEMPO 2006/2011 34004KT 2000 BR FEW015 BKN110
BECMG 2021/2024 4000 HZ NSC


Example: see airport list